createdAt,value
2023-03-29T00:00:07.692Z,2.80
2023-03-29T00:02:37.174Z,2.63
2023-03-29T00:05:06.177Z,3.10
2023-03-29T00:07:33.900Z,3.22
2023-03-29T00:10:04.628Z,3.70
2023-03-29T00:12:33.439Z,3.55
2023-03-29T00:15:01.034Z,3.20
2023-03-29T00:17:30.557Z,3.00
2023-03-29T00:19:59.865Z,4.00
2023-03-29T00:22:33.820Z,3.20
2023-03-29T00:25:02.728Z,3.78
2023-03-29T00:27:30.630Z,3.65
2023-03-29T00:30:00.524Z,4.32
2023-03-29T00:32:28.450Z,4.15
2023-03-29T00:34:56.126Z,4.07
2023-03-29T00:37:25.143Z,3.90
2023-03-29T00:39:54.120Z,4.88
2023-03-29T00:42:22.134Z,4.60
2023-03-29T00:44:59.504Z,4.70
2023-03-29T00:47:32.511Z,4.30
2023-03-29T00:50:04.886Z,4.65
2023-03-29T00:52:35.629Z,4.18
2023-03-29T00:55:11.843Z,5.10
2023-03-29T00:57:40.684Z,5.25
2023-03-29T01:00:13.139Z,5.20
2023-03-29T01:02:43.546Z,4.63
2023-03-29T01:05:15.701Z,4.78
2023-03-29T01:07:49.911Z,5.30
2023-03-29T01:10:25.465Z,5.00
2023-03-29T01:12:58.165Z,5.47
2023-03-29T01:15:27.774Z,5.32
2023-03-29T01:17:56.740Z,5.82
2023-03-29T01:20:35.587Z,5.07
2023-03-29T01:23:21.243Z,5.63
2023-03-29T01:26:00.857Z,5.90
2023-03-29T01:28:34.240Z,6.05
2023-03-29T01:31:05.745Z,5.45
2023-03-29T01:33:38.733Z,5.20
2023-03-29T01:36:14.227Z,5.38
2023-03-29T01:38:46.609Z,5.63
2023-03-29T01:41:14.842Z,6.07
2023-03-29T01:43:48.781Z,6.80
2023-03-29T01:46:26.954Z,6.10
2023-03-29T01:48:59.739Z,5.78
2023-03-29T01:51:35.247Z,5.90
2023-03-29T01:54:07.395Z,6.18
2023-03-29T01:56:40.698Z,6.35
2023-03-29T01:59:14.044Z,6.38
2023-03-29T02:01:47.454Z,6.05
2023-03-29T02:04:20.060Z,5.55
2023-03-29T02:06:53.273Z,5.90
2023-03-29T02:09:22.322Z,6.18
2023-03-29T02:11:51.479Z,6.53
2023-03-29T02:14:25.593Z,7.22
2023-03-29T02:16:53.442Z,6.85
2023-03-29T02:19:22.851Z,6.53
2023-03-29T02:21:59.850Z,6.40
2023-03-29T02:24:30.495Z,6.60
2023-03-29T02:26:59.914Z,5.95
2023-03-29T02:29:30.249Z,6.32
2023-03-29T02:32:03.277Z,6.82
2023-03-29T02:34:34.599Z,6.80
2023-03-29T02:37:06.458Z,6.53
2023-03-29T02:39:37.946Z,6.55
2023-03-29T02:42:07.491Z,6.47
2023-03-29T02:44:39.800Z,6.40
2023-03-29T02:47:13.855Z,6.88
2023-03-29T02:49:41.636Z,7.15
2023-03-29T02:52:14.472Z,6.43
2023-03-29T02:54:43.775Z,7.75
2023-03-29T02:57:11.824Z,7.28
2023-03-29T10:59:30.357Z,2.08
2023-03-29T11:02:33.264Z,1.60
2023-03-29T11:05:16.312Z,2.40
2023-03-29T11:07:59.803Z,2.50
2023-03-29T11:10:37.852Z,1.95
2023-03-29T11:13:14.671Z,1.73
2023-03-29T11:15:55.607Z,1.88
2023-03-29T11:18:43.285Z,2.03
2023-03-29T11:21:21.132Z,2.05
2023-03-29T11:23:57.918Z,2.05
2023-03-29T11:26:30.235Z,2.20
2023-03-29T11:29:06.856Z,2.00
2023-03-29T11:31:48.230Z,2.45
2023-03-29T11:34:28.811Z,2.10
2023-03-29T11:37:03.520Z,2.20
2023-03-29T11:39:45.054Z,2.20
2023-03-29T11:42:18.685Z,2.15
2023-03-29T11:44:53.408Z,2.58
2023-03-29T11:47:28.006Z,2.45
2023-03-29T11:49:58.461Z,1.80
2023-03-29T11:52:30.449Z,2.08
2023-03-29T11:55:03.111Z,2.05
2023-03-29T11:57:37.363Z,2.30
2023-03-29T12:00:10.835Z,1.70
2023-03-29T12:02:44.794Z,1.60
2023-03-29T12:05:20.114Z,3.25
2023-03-29T12:07:53.763Z,4.53
2023-03-29T12:10:23.166Z,2.03
2023-03-29T12:12:58.611Z,2.10
2023-03-29T12:15:29.613Z,3.15
2023-03-29T12:18:06.021Z,4.65
2023-03-29T12:20:39.010Z,2.33
2023-03-29T12:23:10.822Z,2.38
2023-03-29T12:25:48.976Z,2.25
2023-03-29T12:29:08.889Z,2.25
2023-03-29T12:31:44.699Z,2.92
2023-03-29T12:34:28.473Z,1.95
2023-03-29T12:37:10.655Z,2.05
2023-03-29T12:39:39.492Z,2.50
2023-03-29T12:42:16.501Z,2.20
2023-03-29T12:44:49.337Z,1.92
2023-03-29T12:47:21.192Z,2.65
2023-03-29T12:49:53.973Z,2.22
2023-03-29T12:52:27.303Z,2.10
2023-03-29T12:54:56.736Z,2.50
2023-03-29T12:57:28.461Z,1.80
2023-03-29T13:02:35.756Z,3.17
2023-03-29T13:05:29.059Z,2.60
2023-03-29T13:07:56.836Z,2.30
2023-03-29T13:10:51.909Z,3.15
2023-03-29T13:13:26.919Z,2.20
2023-03-29T13:15:54.927Z,2.03
2023-03-29T13:18:43.597Z,2.60
2023-03-29T13:21:20.868Z,2.85
2023-03-29T13:23:56.613Z,2.40
2023-03-29T13:26:37.313Z,2.45
2023-03-29T13:29:22.451Z,2.60
2023-03-29T13:31:58.637Z,2.20
2023-03-29T13:34:36.953Z,1.98
2023-03-29T13:37:22.911Z,2.03
2023-03-29T13:39:52.475Z,2.78
2023-03-29T13:42:26.023Z,3.35
2023-03-29T13:45:04.835Z,2.25
2023-03-29T13:47:48.930Z,3.20
2023-03-29T13:50:35.620Z,3.00
2023-03-29T13:53:12.468Z,2.72
2023-03-29T13:55:46.119Z,3.50
2023-03-29T13:58:30.369Z,3.60
2023-03-29T14:01:06.788Z,6.40
2023-03-29T14:03:43.130Z,4.25
2023-03-29T14:06:14.070Z,3.38
2023-03-29T14:08:47.802Z,2.40
2023-03-29T14:11:22.064Z,2.90
2023-03-29T14:13:52.584Z,2.45
2023-03-29T14:16:20.794Z,2.05
2023-03-29T14:18:50.756Z,3.50
2023-03-29T14:21:20.794Z,5.82
2023-03-29T14:23:56.169Z,4.90
2023-03-29T14:26:29.265Z,6.47
2023-03-29T14:28:58.711Z,13.25
2023-03-29T14:31:30.243Z,8.75
2023-03-29T14:34:00.325Z,40.63
2023-03-29T14:36:31.038Z,38.05
2023-03-29T14:39:04.238Z,21.55
2023-03-29T14:41:34.506Z,9.52
2023-03-29T14:44:03.306Z,24.65
2023-03-29T14:46:31.628Z,45.65
2023-03-29T14:49:01.850Z,28.80
2023-03-29T14:51:29.743Z,20.85
2023-03-29T14:53:59.082Z,15.25
2023-03-29T14:56:29.118Z,5.38
2023-03-29T14:58:57.556Z,3.38
2023-03-29T15:01:26.717Z,6.95
2023-03-29T15:03:57.051Z,5.85
2023-03-29T15:06:26.052Z,3.95
2023-03-29T15:09:05.077Z,3.15
2023-03-29T15:11:35.875Z,4.55
2023-03-29T15:14:06.324Z,4.15
2023-03-29T15:16:38.730Z,3.53
2023-03-29T15:19:07.615Z,3.63
2023-03-29T15:21:35.670Z,5.53
2023-03-29T15:24:04.895Z,6.05
2023-03-29T15:26:34.396Z,8.45
2023-03-29T15:29:07.196Z,9.90
2023-03-29T15:31:37.952Z,7.50
2023-03-29T15:34:09.053Z,3.30
2023-03-29T15:36:41.072Z,4.55
2023-03-29T15:39:12.289Z,4.85
2023-03-29T15:41:39.977Z,4.20
2023-03-29T15:44:10.641Z,5.20
2023-03-29T15:46:38.776Z,4.30
2023-03-29T15:49:10.653Z,5.45
2023-03-29T15:51:40.183Z,5.78
2023-03-29T15:54:07.977Z,5.30
2023-03-29T15:56:43.724Z,5.50
2023-03-29T15:59:13.531Z,3.80
2023-03-29T16:01:41.347Z,4.03
2023-03-29T16:04:12.397Z,5.32
2023-03-29T16:06:42.393Z,9.90
2023-03-29T16:09:10.375Z,8.48
2023-03-29T16:11:38.594Z,6.57
2023-03-29T16:14:20.922Z,6.55
2023-03-29T16:16:49.516Z,5.20
2023-03-29T16:19:22.458Z,5.00
2023-03-29T16:21:51.118Z,4.68
2023-03-29T16:24:22.250Z,5.32
2023-03-29T16:26:52.800Z,6.43
2023-03-29T16:29:25.470Z,11.82
2023-03-29T16:31:53.906Z,20.50
2023-03-29T16:34:22.143Z,11.77
2023-03-29T16:36:50.619Z,17.60
2023-03-29T16:39:19.944Z,12.50
2023-03-29T16:41:47.802Z,8.32
2023-03-29T16:44:16.702Z,20.05
2023-03-29T16:46:46.355Z,33.97
2023-03-29T16:49:14.608Z,16.25
2023-03-29T16:51:42.330Z,61.25
2023-03-29T16:54:10.005Z,45.90
2023-03-29T16:56:38.029Z,48.58
2023-03-29T16:59:06.716Z,23.13
2023-03-29T17:01:34.626Z,37.35
2023-03-29T17:04:04.201Z,41.88
2023-03-29T17:06:32.905Z,29.63
2023-03-29T17:09:00.967Z,31.90
2023-03-29T17:11:29.076Z,34.92
2023-03-29T17:13:57.627Z,36.67
2023-03-29T17:16:26.058Z,17.20
2023-03-29T17:18:53.951Z,12.63
2023-03-29T17:21:22.989Z,16.73
2023-03-29T17:23:50.988Z,13.50
2023-03-29T17:26:18.633Z,13.43
2023-03-29T17:28:46.578Z,16.02
2023-03-29T17:31:14.621Z,13.98
2023-03-29T17:33:43.008Z,11.45
2023-03-29T17:36:11.397Z,7.32
2023-03-29T17:38:41.328Z,9.82
2023-03-29T17:41:08.924Z,12.25
2023-03-29T17:43:37.270Z,14.57
2023-03-29T17:46:06.061Z,18.75
2023-03-29T17:48:33.950Z,17.42
2023-03-29T17:51:01.859Z,15.63
2023-03-29T17:53:30.240Z,26.90
2023-03-29T17:55:59.561Z,23.30
2023-03-29T17:58:27.296Z,27.90
2023-03-29T18:00:55.091Z,22.83
2023-03-29T18:03:23.809Z,23.95
2023-03-29T18:05:51.553Z,31.80
2023-03-29T18:08:19.328Z,25.88
2023-03-29T18:10:48.013Z,21.77
2023-03-29T18:13:17.660Z,23.27
2023-03-29T18:15:45.442Z,24.17
2023-03-29T18:18:13.164Z,19.48
2023-03-29T18:20:41.035Z,19.00
2023-03-29T18:23:11.658Z,22.45
2023-03-29T18:25:40.383Z,13.45
2023-03-29T18:28:08.089Z,13.77
2023-03-29T18:30:38.189Z,14.35
2023-03-29T18:33:05.988Z,13.50
2023-03-29T18:35:33.787Z,24.83
2023-03-29T18:38:01.668Z,14.70
2023-03-29T18:40:29.330Z,8.70
2023-03-29T18:42:57.186Z,9.52
2023-03-29T18:45:25.025Z,8.68
2023-03-29T18:47:54.783Z,8.45
2023-03-29T18:50:23.004Z,11.25
2023-03-29T18:52:51.240Z,12.90
2023-03-29T18:55:18.999Z,12.63
2023-03-29T18:57:46.729Z,9.48
2023-03-29T19:00:17.478Z,5.93
2023-03-29T19:02:46.377Z,7.90
2023-03-29T19:05:15.590Z,9.77
2023-03-29T19:07:43.452Z,10.18
2023-03-29T19:10:11.238Z,10.85
2023-03-29T19:12:39.011Z,7.53
2023-03-29T19:15:09.352Z,8.93
2023-03-29T19:17:37.350Z,8.85
2023-03-29T19:20:06.361Z,8.05
2023-03-29T19:22:36.015Z,14.50
2023-03-29T19:25:04.169Z,15.13
2023-03-29T19:27:33.233Z,16.10
2023-03-29T19:30:00.960Z,14.15
2023-03-29T19:32:28.660Z,12.38
2023-03-29T19:35:02.511Z,10.45
2023-03-29T19:37:30.529Z,8.27
2023-03-29T19:40:00.041Z,7.90
2023-03-29T19:42:28.189Z,9.38
2023-03-29T19:44:55.789Z,7.25
2023-03-29T19:47:23.468Z,4.90
2023-03-29T19:49:51.413Z,4.68
2023-03-29T19:52:18.974Z,6.40
2023-03-29T19:54:46.631Z,10.70
2023-03-29T19:57:15.828Z,9.35
2023-03-29T19:59:43.673Z,6.88
2023-03-29T20:02:18.858Z,11.77
2023-03-29T20:04:46.423Z,18.85
2023-03-29T20:07:14.353Z,15.35
2023-03-29T20:09:44.567Z,13.70
2023-03-29T20:12:12.865Z,15.23
2023-03-29T20:14:42.286Z,8.88
2023-03-29T20:17:09.858Z,11.23
2023-03-29T20:19:37.522Z,13.65
2023-03-29T20:22:05.378Z,12.52
2023-03-29T20:24:34.763Z,13.70
2023-03-29T20:27:02.598Z,12.27
2023-03-29T20:29:31.150Z,13.38
2023-03-29T20:32:00.465Z,12.85
2023-03-29T20:34:28.161Z,11.02
2023-03-29T20:36:56.081Z,8.23
2023-03-29T20:39:25.807Z,7.20
2023-03-29T20:41:53.575Z,7.18
2023-03-29T20:44:21.464Z,8.15
2023-03-29T20:46:49.158Z,7.70
2023-03-29T20:49:18.140Z,6.82
2023-03-29T20:51:46.291Z,8.18
2023-03-29T20:54:14.068Z,7.72
2023-03-29T20:56:41.697Z,6.95
2023-03-29T20:59:10.942Z,6.32
2023-03-29T21:01:38.794Z,5.32
2023-03-29T21:04:07.309Z,7.20
2023-03-29T21:06:37.023Z,5.10
2023-03-29T21:09:04.640Z,4.15
2023-03-29T21:11:33.032Z,4.85
2023-03-29T21:14:01.118Z,6.68
2023-03-29T21:16:28.822Z,4.78
2023-03-29T21:18:57.132Z,4.85
2023-03-29T21:21:25.216Z,4.75
2023-03-29T21:23:54.335Z,3.83
2023-03-29T21:26:21.853Z,3.83
2023-03-29T21:28:49.766Z,3.28
2023-03-29T21:31:17.382Z,3.47
2023-03-29T21:33:45.523Z,3.15
2023-03-29T21:36:14.837Z,2.78
2023-03-29T21:38:44.408Z,2.42
2023-03-29T21:41:13.797Z,2.78
2023-03-29T21:43:41.901Z,3.08
2023-03-29T21:46:10.100Z,3.50
2023-03-29T21:48:37.995Z,3.40
2023-03-29T21:51:06.926Z,4.13
2023-03-29T21:53:35.065Z,3.67
2023-03-29T21:56:02.883Z,3.90
2023-03-29T21:58:32.665Z,4.10
2023-03-29T22:01:01.721Z,5.23
2023-03-29T22:03:30.245Z,5.13
2023-03-29T22:05:59.512Z,4.78
2023-03-29T22:08:28.464Z,5.05
2023-03-29T22:10:57.141Z,4.72
2023-03-29T22:13:27.634Z,4.55
2023-03-29T22:15:57.551Z,4.03
2023-03-29T22:18:25.995Z,3.97
2023-03-29T22:21:00.512Z,3.90
2023-03-29T22:23:28.551Z,4.60
2023-03-29T22:25:56.200Z,4.22
2023-03-29T22:28:25.929Z,4.45
2023-03-29T22:30:53.597Z,4.20
2023-03-29T22:33:22.590Z,4.43
2023-03-29T22:35:50.258Z,5.68
2023-03-29T22:38:17.945Z,4.90
2023-03-29T22:40:45.576Z,5.72
2023-03-29T22:43:13.379Z,5.13
2023-03-29T22:45:41.092Z,4.90
2023-03-29T22:48:08.758Z,4.97
2023-03-29T22:50:38.043Z,4.50
2023-03-29T22:53:05.770Z,5.05
2023-03-29T22:55:33.311Z,4.70
2023-03-29T22:58:01.381Z,4.90
2023-03-29T23:00:29.523Z,4.13
2023-03-29T23:02:57.673Z,4.85
2023-03-29T23:05:25.546Z,4.68
2023-03-29T23:07:54.673Z,5.13
2023-03-29T23:10:25.901Z,5.32
2023-03-29T23:12:55.785Z,5.35
2023-03-29T23:15:23.516Z,5.18
2023-03-29T23:17:51.512Z,4.65
2023-03-29T23:20:19.740Z,4.88
2023-03-29T23:22:47.440Z,5.85
2023-03-29T23:25:17.781Z,5.63
2023-03-29T23:27:45.668Z,5.88
2023-03-29T23:30:13.594Z,5.43
2023-03-29T23:32:42.822Z,6.43
2023-03-29T23:35:10.484Z,6.13
2023-03-29T23:37:39.744Z,5.43
2023-03-29T23:40:09.001Z,5.32
2023-03-29T23:42:38.199Z,4.95
2023-03-29T23:45:08.007Z,5.78
2023-03-29T23:47:36.210Z,4.68
2023-03-29T23:50:07.515Z,4.70
2023-03-29T23:52:35.990Z,4.88
2023-03-29T23:55:04.256Z,4.65
2023-03-29T23:57:32.678Z,4.88
